Time;durP1;ratioP1;P1;durP2;ratioP2;P2;SDS_P1;SDS_P2;PMS_P1;PMS_P2;Temp;Humidity;BMP_temperature;BMP_pressure;BME280_temperature;BME280_humidity;BME280_pressure;Samples;Min_cycle;Max_cycle;Signal;HPM_P1;HPM_P2
2022/04/28 00:01:38;;;;;;;12.10;7.10;;;;;;;6.47;84.19;67493.44;6117960;23;20010;-85
2022/04/28 00:04:03;;;;;;;13.38;6.93;;;;;;;6.47;84.01;67496.66;6090517;23;20033;-85
2022/04/28 00:06:29;;;;;;;10.70;7.10;;;;;;;6.51;83.59;67503.25;6091333;23;20014;-85
2022/04/28 00:08:54;;;;;;;14.88;7.30;;;;;;;6.46;83.91;67492.31;6115804;23;20096;-84
2022/04/28 00:11:19;;;;;;;15.30;7.82;;;;;;;6.43;83.69;67492.13;6117778;23;20014;-85
2022/04/28 00:13:45;;;;;;;17.08;7.53;;;;;;;6.36;84.51;67486.88;6091185;23;20456;-84
2022/04/28 00:16:10;;;;;;;15.00;6.97;;;;;;;;;;6117172;23;20675;-85
2022/04/28 00:18:35;;;;;;;14.45;6.80;;;;;;;6.29;84.77;67476.84;6091773;23;20049;-85
2022/04/28 00:21:01;;;;;;;14.23;7.63;;;;;;;6.18;85.43;67461.78;6091455;23;20069;-84
2022/04/28 00:23:26;;;;;;;13.27;7.25;;;;;;;6.18;85.18;67461.78;6123926;23;20233;-84
2022/04/28 00:25:51;;;;;;;18.77;9.15;;;;;;;6.14;85.37;67461.97;6118824;23;20022;-85
2022/04/28 00:28:20;;;;;;;17.30;7.95;;;;;;;6.23;85.23;67467.44;6115926;23;20021;-85
2022/04/28 00:30:45;;;;;;;15.60;7.53;;;;;;;6.20;85.09;67464.03;6091652;23;20020;-85
2022/04/28 00:33:11;;;;;;;14.60;7.32;;;;;;;6.15;85.34;67460.47;6116222;23;20022;-85
2022/04/28 00:35:38;;;;;;;12.25;8.18;;;;;;;6.09;85.19;67452.16;6117626;23;20014;-85
2022/04/28 00:38:04;;;;;;;12.45;7.78;;;;;;;5.92;86.13;67438.22;6090417;23;20018;-85
2022/04/28 00:40:29;;;;;;;13.45;8.10;;;;;;;5.94;86.27;67440.50;6092501;23;20018;-85
2022/04/28 00:43:18;;;;;;;14.65;7.88;;;;;;;5.86;86.30;67429.34;6090209;23;20067;-85
2022/04/28 00:45:40;;;;;;;12.57;7.47;;;;;;;5.83;87.42;67422.75;6116581;23;20018;-85
2022/04/28 00:50:49;;;;;;;14.75;8.10;;;;;;;5.75;87.54;67416.34;6115853;23;20100;-84
2022/04/28 00:53:15;;;;;;;18.85;7.90;;;;;;;5.70;87.78;67408.06;6091597;23;20530;-84
2022/04/28 00:55:42;;;;;;;16.55;8.77;;;;;;;5.57;87.94;67394.50;6093383;23;20028;-84
2022/04/28 00:58:07;;;;;;;15.57;8.52;;;;;;;5.49;88.68;67385.47;6118423;23;20041;-85
2022/04/28 01:00:34;;;;;;;16.17;8.10;;;;;;;5.47;89.01;67385.28;6119937;23;20037;-85
2022/04/28 01:02:59;;;;;;;15.75;8.98;;;;;;;5.47;89.18;67382.63;6117350;23;20127;-85
2022/04/28 01:05:26;;;;;;;14.07;8.68;;;;;;;5.44;89.22;67382.47;6093712;23;20463;-85
2022/04/28 01:07:51;;;;;;;16.73;8.63;;;;;;;5.38;89.49;67378.31;6119504;23;20018;-84
2022/04/28 01:10:17;;;;;;;18.98;8.05;;;;;;;5.51;89.35;67387.72;6119608;23;20021;-84
2022/04/28 01:12:43;;;;;;;10.52;8.00;;;;;;;;;;6092826;23;20088;-84
2022/04/28 01:15:09;;;;;;;16.67;8.43;;;;;;;5.48;88.68;67389.63;6092657;23;20014;-84
2022/04/28 01:17:34;;;;;;;13.57;7.43;;;;;;;5.35;88.64;67370.22;6119182;23;20033;-83
2022/04/28 01:20:00;;;;;;;16.63;8.40;;;;;;;5.39;89.30;67376.81;6093266;23;20016;-83
2022/04/28 01:22:26;;;;;;;17.42;8.90;;;;;;;5.39;89.37;67380.00;6118323;23;20040;-84
2022/04/28 01:24:51;;;;;;;15.88;8.80;;;;;;;5.32;89.10;67366.84;6093161;23;20066;-83
2022/04/28 01:27:18;;;;;;;15.82;8.75;;;;;;;5.31;89.79;67365.13;6120194;23;20022;-83
2022/04/28 01:29:44;;;;;;;15.50;8.45;;;;;;;5.30;90.16;67367.22;6119491;23;20018;-83
2022/04/28 01:32:09;;;;;;;16.60;9.10;;;;;;;5.32;89.75;67371.53;6117308;23;20025;-84
2022/04/28 01:34:34;;;;;;;21.10;9.48;;;;;;;5.22;89.86;67357.59;6119700;23;20018;-84
2022/04/28 01:37:00;;;;;;;18.20;9.73;;;;;;;5.14;90.46;67357.03;6117767;23;20024;-84
2022/04/28 01:39:25;;;;;;;15.55;8.45;;;;;;;5.12;90.50;67349.50;6119290;23;20014;-84
2022/04/28 01:41:50;;;;;;;18.95;9.40;;;;;;;5.10;89.98;67347.25;6117746;23;20020;-84
2022/04/28 01:44:16;;;;;;;14.40;8.88;;;;;;;5.02;90.48;67336.13;6092807;23;20018;-84
2022/04/28 01:46:41;;;;;;;14.15;8.88;;;;;;;4.94;91.62;67324.47;6118870;23;20017;-84
2022/04/28 01:49:07;;;;;;;13.45;8.93;;;;;;;4.96;91.56;67332.56;6118367;23;20077;-84
2022/04/28 01:57:01;;;;;;;14.85;9.02;;;;;;;4.84;92.15;67313.19;6118376;23;20029;-84
2022/04/28 01:59:26;;;;;;;17.08;10.68;;;;;;;4.79;92.76;67307.53;6093166;23;20017;-85
2022/04/28 02:01:51;;;;;;;16.80;11.80;;;;;;;4.78;92.61;67306.41;6090603;23;20097;-85
2022/04/28 02:04:16;;;;;;;20.45;12.68;;;;;;;4.76;92.95;67309.97;6093334;23;20014;-84
2022/04/28 02:06:42;;;;;;;22.65;12.60;;;;;;;4.79;92.97;67313.34;6092679;23;20041;-84
2022/04/28 02:09:07;;;;;;;19.90;13.48;;;;;;;4.83;92.96;67314.66;6118219;23;20010;-84
2022/04/28 02:11:33;;;;;;;24.60;13.70;;;;;;;4.78;92.91;67306.97;6118898;23;20524;-84
2022/04/28 02:13:58;;;;;;;23.60;13.32;;;;;;;4.77;93.13;67310.53;6117318;23;20041;-84
2022/04/28 02:16:23;;;;;;;21.15;13.98;;;;;;;4.75;93.55;67309.41;6092599;23;20025;-85
2022/04/28 02:18:49;;;;;;;23.73;12.88;;;;;;;4.70;93.65;67300.56;6118968;23;20337;-84
2022/04/28 02:21:14;;;;;;;20.50;12.85;;;;;;;4.64;93.54;67291.72;6117966;23;20052;-84
2022/04/28 02:23:39;;;;;;;17.50;11.55;;;;;;;4.55;93.56;67284.19;6091547;23;20436;-84
2022/04/28 02:26:05;;;;;;;18.10;11.60;;;;;;;4.55;94.41;67286.84;6092270;23;20060;-85
2022/04/28 02:28:30;;;;;;;22.73;12.38;;;;;;;4.59;94.42;67288.69;6118876;23;20081;-84
2022/04/28 02:30:55;;;;;;;18.02;11.90;;;;;;;4.45;94.66;67278.72;6118208;23;20025;-85
2022/04/28 02:33:20;;;;;;;18.92;12.15;;;;;;;4.49;95.16;67277.44;6117026;23;20028;-84
2022/04/28 02:35:46;;;;;;;20.30;12.55;;;;;;;4.55;94.97;67284.19;6092092;23;20519;-85
2022/04/28 02:38:12;;;;;;;19.95;13.07;;;;;;;4.46;94.75;67271.38;6093839;23;20332;-85
2022/04/28 02:40:38;;;;;;;18.85;11.73;;;;;;;4.44;94.92;67269.13;6093368;23;20089;-85
2022/04/28 02:43:04;;;;;;;22.48;12.85;;;;;;;4.46;95.74;67271.38;6091908;23;20024;-85
2022/04/28 02:45:29;;;;;;;23.90;13.02;;;;;;;4.43;95.27;67270.63;6093836;23;20014;-85
2022/04/28 02:47:54;;;;;;;25.13;13.13;;;;;;;4.42;95.46;67272.72;6118061;23;20020;-85
2022/04/28 02:50:21;;;;;;;19.45;11.73;;;;;;;4.41;95.01;67271.03;6119225;23;20026;-85
2022/04/28 02:52:49;;;;;;;21.42;11.82;;;;;;;4.37;95.76;67263.88;6091548;23;20017;-85
2022/04/28 02:55:14;;;;;;;22.48;12.77;;;;;;;4.36;95.58;67265.94;6093292;23;20033;-85
2022/04/28 02:57:40;;;;;;;24.20;12.00;;;;;;;4.30;96.04;67253.91;6119040;23;20021;-85
2022/04/28 03:00:06;;;;;;;20.67;13.48;;;;;;;4.26;95.63;67257.28;6092980;23;20044;-84
2022/04/28 03:02:31;;;;;;;23.70;12.60;;;;;;;4.24;96.16;67250.31;6094167;23;20044;-85
2022/04/28 03:04:57;;;;;;;25.80;13.05;;;;;;;4.22;95.78;67245.44;6094262;23;20014;-85
2022/04/28 03:12:51;;;;;;;17.98;12.93;;;;;;;4.08;96.58;67229.63;6118618;23;20163;-85
2022/04/28 03:15:17;;;;;;;21.50;12.52;;;;;;;3.96;96.02;67221.91;6120442;23;20054;-85
2022/04/28 03:17:42;;;;;;;24.05;13.43;;;;;;;3.99;97.08;67219.47;6094663;23;20021;-85
2022/04/28 03:20:09;;;;;;;24.58;14.07;;;;;;;3.98;97.28;67223.63;6092516;23;20026;-85
2022/04/28 03:22:36;;;;;;;27.63;14.05;;;;;;;3.99;97.53;67224.75;6092943;23;20368;-85
2022/04/28 03:25:04;;;;;;;25.05;14.68;;;;;;;3.98;97.47;67224.19;6093926;23;20533;-85
2022/04/28 03:27:31;;;;;;;26.85;13.77;;;;;;;4.00;98.21;67220.59;6094336;23;20085;-85
2022/04/28 03:29:57;;;;;;;25.20;14.05;;;;;;;3.95;97.36;67220.78;6119597;23;20460;-85
2022/04/28 03:32:22;;;;;;;21.30;13.35;;;;;;;3.93;98.19;67221.16;6092729;23;20032;-84
2022/04/28 03:34:47;;;;;;;25.98;15.02;;;;;;;4.03;98.92;67229.25;6094419;23;20097;-83
2022/04/28 03:37:13;;;;;;;25.08;13.70;;;;;;;3.94;98.70;67219.09;6093547;23;20041;-84
2022/04/28 03:39:38;;;;;;;25.73;15.45;;;;;;;3.97;98.88;67223.06;6119972;23;20122;-84
2022/04/28 03:42:05;;;;;;;23.70;13.63;;;;;;;3.95;98.76;67220.22;6118744;23;20018;-83
2022/04/28 03:44:30;;;;;;;24.25;14.18;;;;;;;3.90;98.73;67212.50;6121050;23;20022;-83
2022/04/28 03:46:56;;;;;;;23.45;16.08;;;;;;;3.82;99.56;67203.47;6118955;23;20097;-85
2022/04/28 03:49:22;;;;;;;25.10;14.05;;;;;;;3.94;99.01;67216.47;6120294;23;20022;-85
2022/04/28 03:51:47;;;;;;;22.38;14.73;;;;;;;3.86;99.05;67208.00;6118840;23;20403;-84
2022/04/28 03:54:12;;;;;;;25.92;16.23;;;;;;;3.87;99.53;67208.56;6123887;23;20018;-84
2022/04/28 03:56:38;;;;;;;30.33;15.35;;;;;;;3.86;99.44;67207.44;6089636;23;20027;-78
2022/04/28 03:59:04;;;;;;;24.08;14.88;;;;;;;3.80;99.27;67203.88;6093145;23;20098;-78
2022/04/28 04:01:29;;;;;;;25.92;16.08;;;;;;;3.82;99.71;67206.69;6092774;23;20355;-76
2022/04/28 04:03:55;;;;;;;26.08;15.70;;;;;;;3.75;100.00;67196.16;6091083;23;20483;-76
2022/04/28 04:06:20;;;;;;;28.50;16.10;;;;;;;3.80;99.83;67204.44;6089649;23;20025;-77
2022/04/28 04:08:45;;;;;;;26.58;16.13;;;;;;;3.79;100.00;67202.72;6093469;23;20038;-77
2022/04/28 04:11:12;;;;;;;33.45;17.15;;;;;;;3.80;100.00;67199.16;6093702;23;20395;-77
2022/04/28 04:13:37;;;;;;;26.48;15.88;;;;;;;3.70;100.00;67192.59;6093918;23;20029;-78
2022/04/28 04:16:03;;;;;;;28.50;17.08;;;;;;;3.75;100.00;67198.78;6092795;23;20019;-77
2022/04/28 04:18:28;;;;;;;26.20;16.50;;;;;;;3.78;100.00;67198.97;6092312;23;20434;-78
2022/04/28 04:20:53;;;;;;;28.20;16.67;;;;;;;3.83;100.00;67205.19;6093007;23;20019;-77
2022/04/28 04:23:18;;;;;;;27.85;16.05;;;;;;;3.80;100.00;67204.44;6093117;23;20010;-77
2022/04/28 04:25:45;;;;;;;29.77;16.00;;;;;;;3.80;100.00;67201.81;6093474;23;20026;-77
2022/04/28 04:28:10;;;;;;;27.98;15.73;;;;;;;3.77;100.00;67198.41;6093269;23;20115;-77
2022/04/28 04:33:19;;;;;;;27.45;17.48;;;;;;;3.78;100.00;67201.63;6091394;23;20363;-76
2022/04/28 04:35:45;;;;;;;25.27;15.88;;;;;;;;;;6086677;23;20101;-79
2022/04/28 04:38:10;;;;;;;28.15;17.55;;;;;;;3.80;100.00;67204.44;6086550;23;20034;-76
2022/04/28 04:40:35;;;;;;;29.35;16.40;;;;;;;3.79;100.00;67200.66;6089855;23;20022;-78
2022/04/28 04:43:02;;;;;;;30.48;17.25;;;;;;;3.78;100.00;67202.16;6085304;23;20333;-74
2022/04/28 04:45:27;;;;;;;29.00;16.98;;;;;;;3.83;100.00;67209.88;6085780;23;20730;-77
2022/04/28 04:47:53;;;;;;;29.02;16.13;;;;;;;3.86;100.00;67212.72;6085781;23;20011;-78
2022/04/28 04:50:18;;;;;;;26.98;16.23;;;;;;;3.93;100.00;67212.72;6084708;23;20014;-77
2022/04/28 04:52:43;;;;;;;29.02;15.73;;;;;;;4.00;100.00;67223.22;6084905;23;20018;-75
2022/04/28 04:55:09;;;;;;;28.25;14.95;;;;;;;4.10;100.00;67231.88;6085448;23;20015;-76
2022/04/28 04:57:34;;;;;;;23.40;15.20;;;;;;;4.03;100.00;67229.81;6087412;23;20078;-78
2022/04/28 05:00:02;;;;;;;25.90;15.05;;;;;;;4.12;100.00;67236.78;6085482;23;20048;-75
2022/04/28 05:02:27;;;;;;;25.27;15.00;;;;;;;4.18;100.00;67240.91;6060834;23;20018;-78
2022/04/28 05:04:53;;;;;;;20.77;14.10;;;;;;;4.25;99.99;67253.53;6084680;23;20105;-77
2022/04/28 05:07:18;;;;;;;24.17;14.82;;;;;;;4.23;99.99;67246.56;6086747;23;20078;-77
2022/04/28 05:09:43;;;;;;;21.23;14.07;;;;;;;4.35;99.30;67264.81;6086812;23;20045;-76
2022/04/28 05:12:09;;;;;;;24.20;14.10;;;;;;;4.39;99.38;67271.97;6085019;23;20014;-77
2022/04/28 05:14:35;;;;;;;28.25;15.10;;;;;;;4.41;99.13;67271.03;6087149;23;20014;-78
2022/04/28 05:17:01;;;;;;;22.88;14.10;;;;;;;4.45;99.44;67275.53;6086059;23;20019;-79
2022/04/28 05:19:27;;;;;;;22.15;14.63;;;;;;;4.47;99.01;67277.78;6088820;23;20018;-78
2022/04/28 05:21:53;;;;;;;22.88;14.05;;;;;;;4.49;99.10;67280.63;6072263;23;20026;-78
2022/04/28 05:24:18;;;;;;;21.15;13.50;;;;;;;4.61;98.49;67288.34;6072145;23;20045;-80
2022/04/28 05:26:44;;;;;;;22.50;13.88;;;;;;;4.65;98.10;67294.91;6096458;23;20019;-80
2022/04/28 05:29:09;;;;;;;25.88;14.35;;;;;;;4.77;97.99;67310.53;6066693;23;20025;-79
2022/04/28 05:31:35;;;;;;;23.88;14.10;;;;;;;;;;6093389;23;20046;-79
2022/04/28 05:34:00;;;;;;;23.38;12.82;;;;;;;4.86;97.74;67321.28;6093439;23;20045;-76
2022/04/28 05:36:28;;;;;;;21.52;12.32;;;;;;;4.94;97.14;67329.72;6068552;23;20499;-75
2022/04/28 05:38:56;;;;;;;21.05;12.77;;;;;;;5.01;97.00;67337.09;6095191;23;20025;-78
2022/04/28 05:41:23;;;;;;;21.10;12.67;;;;;;;5.05;96.90;67339.53;6070752;23;20030;-78
2022/04/28 05:46:33;;;;;;;21.15;12.98;;;;;;;5.29;95.96;67362.88;6098960;23;20523;-75
2022/04/28 05:48:58;;;;;;;19.77;12.00;;;;;;;5.39;95.29;67376.81;6074197;23;20018;-75
2022/04/28 05:51:23;;;;;;;24.33;12.90;;;;;;;5.43;95.46;67383.97;6101491;23;20463;-78
2022/04/28 05:53:49;;;;;;;20.55;11.52;;;;;;;5.51;94.88;67390.38;6074592;23;20022;-77
2022/04/28 05:56:14;;;;;;;17.42;10.65;;;;;;;5.60;94.06;67397.88;6101650;23;20102;-77
2022/04/28 05:58:39;;;;;;;20.05;10.82;;;;;;;5.70;94.24;67408.63;6105839;23;20054;-78
2022/04/28 06:01:05;;;;;;;18.17;11.48;;;;;;;5.76;93.44;67415.41;6105474;23;20018;-77
2022/04/28 06:03:30;;;;;;;22.15;10.80;;;;;;;5.82;93.61;67421.63;6100740;23;20023;-78
2022/04/28 06:05:55;;;;;;;20.48;10.75;;;;;;;5.88;93.24;67433.69;6074881;23;20022;-79
2022/04/28 06:08:21;;;;;;;21.83;10.30;;;;;;;5.96;92.69;67437.47;6101706;23;20014;-77
2022/04/28 06:10:46;;;;;;;17.52;9.70;;;;;;;;;;6076973;23;20749;-78
2022/04/28 06:13:11;;;;;;;20.13;10.50;;;;;;;6.23;91.36;67466.88;6102463;23;20022;-78
2022/04/28 06:15:37;;;;;;;16.52;9.27;;;;;;;6.30;91.58;67474.78;6094719;23;20468;-77
2022/04/28 06:18:02;;;;;;;13.77;8.93;;;;;;;;;;6082337;23;20642;-77
2022/04/28 06:20:27;;;;;;;20.17;10.15;;;;;;;6.53;89.81;67511.38;6083322;23;20025;-77
2022/04/28 06:22:53;;;;;;;16.70;9.52;;;;;;;6.64;89.06;67512.09;6083666;23;20014;-77
2022/04/28 06:25:18;;;;;;;14.07;8.75;;;;;;;6.75;88.68;67524.53;6084622;23;20027;-77
2022/04/28 06:27:43;;;;;;;15.57;9.55;;;;;;;6.81;88.17;67536.63;6085497;23;20558;-77
2022/04/28 06:30:09;;;;;;;17.83;8.77;;;;;;;6.96;88.23;67550.97;6084649;23;20021;-77
2022/04/28 06:32:35;;;;;;;17.80;9.07;;;;;;;;;;6083451;23;20070;-77
2022/04/28 06:35:00;;;;;;;15.57;8.07;;;;;;;7.18;86.70;67574.72;6084707;23;20022;-77
2022/04/28 06:37:26;;;;;;;14.77;8.48;;;;;;;7.27;85.81;67582.25;6062538;23;20014;-77
2022/04/28 06:39:51;;;;;;;16.27;8.30;;;;;;;7.41;84.30;67597.53;6088832;23;20018;-77
2022/04/28 06:42:17;;;;;;;12.55;7.68;;;;;;;7.45;82.85;67607.34;6085942;23;20452;-77
2022/04/28 06:44:42;;;;;;;13.85;7.80;;;;;;;7.55;82.95;67618.09;6089079;23;20090;-77
2022/04/28 06:47:07;;;;;;;16.40;7.32;;;;;;;7.65;82.21;67624.13;6086533;23;20019;-77
2022/04/28 06:49:34;;;;;;;11.93;6.45;;;;;;;7.68;80.27;67628.09;6087925;23;20029;-77
2022/04/28 06:52:00;;;;;;;12.00;6.25;;;;;;;7.80;80.94;67643.19;6085103;23;20028;-77
2022/04/28 06:54:25;;;;;;;13.77;6.78;;;;;;;7.86;80.03;67647.91;6086544;23;20067;-77
2022/04/28 06:56:51;;;;;;;14.45;6.30;;;;;;;8.02;79.32;67664.88;6086958;23;20015;-77
2022/04/28 06:59:16;;;;;;;12.60;6.95;;;;;;;8.14;79.08;67683.75;6086286;23;20018;-77
2022/04/28 07:01:43;;;;;;;12.73;6.75;;;;;;;8.18;78.48;67687.75;6087455;23;20025;-77
2022/04/28 07:04:08;;;;;;;15.10;7.28;;;;;;;8.21;77.66;67686.41;6061132;23;20111;-77
2022/04/28 07:06:33;;;;;;;12.40;6.38;;;;;;;;;;6062429;23;20061;-77
2022/04/28 07:08:59;;;;;;;13.10;6.43;;;;;;;8.18;76.18;67683.00;6061953;23;20030;-77
2022/04/28 07:11:24;;;;;;;12.40;5.97;;;;;;;8.18;76.13;67682.44;6087875;23;20101;-77
2022/04/28 07:13:50;;;;;;;14.20;6.43;;;;;;;8.25;76.85;67690.38;6087446;23;20040;-77
2022/04/28 07:16:15;;;;;;;8.98;5.85;;;;;;;8.39;76.18;67706.25;6086958;23;20046;-77
2022/04/28 07:18:41;;;;;;;9.88;5.82;;;;;;;8.49;76.38;67717.56;6088433;23;20030;-77
2022/04/28 07:21:06;;;;;;;10.57;6.13;;;;;;;8.61;75.86;67733.25;6087311;23;20021;-77
2022/04/28 07:23:31;;;;;;;13.32;5.82;;;;;;;8.65;74.92;67737.22;6087095;23;20025;-77
2022/04/28 07:25:57;;;;;;;11.20;5.97;;;;;;;8.71;75.13;67744.00;6086937;23;20097;-77
2022/04/28 07:28:23;;;;;;;10.05;6.28;;;;;;;8.75;75.53;67749.13;6087439;23;20093;-77
2022/04/28 07:30:48;;;;;;;18.25;7.63;;;;;;;;;;6088328;23;20052;-77
2022/04/28 07:33:13;;;;;;;12.75;6.65;;;;;;;8.92;75.01;67767.25;6086121;23;20023;-77
2022/04/28 07:35:39;;;;;;;12.35;6.18;;;;;;;9.02;74.00;67775.94;6087647;23;20033;-77
2022/04/28 07:38:05;;;;;;;12.00;6.15;;;;;;;9.06;73.57;67780.44;6086633;23;20105;-77
2022/04/28 07:40:31;;;;;;;15.73;6.55;;;;;;;8.99;72.92;67767.78;6087342;23;20014;-77
2022/04/28 07:42:57;;;;;;;14.77;7.15;;;;;;;8.92;72.90;67764.59;6086283;23;20062;-77
2022/04/28 07:45:23;;;;;;;14.82;6.45;;;;;;;;;;6087657;23;20022;-77
2022/04/28 07:47:49;;;;;;;12.35;6.68;;;;;;;;;;6086708;23;20023;-77
2022/04/28 07:50:14;;;;;;;13.32;6.78;;;;;;;;;;6087787;23;20022;-77
2022/04/28 07:52:39;;;;;;;9.73;6.45;;;;;;;9.10;71.83;67784.44;6086228;23;20031;-77
2022/04/28 07:55:06;;;;;;;12.07;6.15;;;;;;;9.15;71.86;67795.97;6086392;23;20042;-77
2022/04/28 07:57:31;;;;;;;12.75;5.95;;;;;;;9.41;73.84;67819.00;6091331;23;20105;-77
2022/04/28 07:59:57;;;;;;;11.70;5.80;;;;;;;;;;6116566;23;20112;-77
2022/04/28 08:02:22;;;;;;;11.90;5.55;;;;;;;9.74;72.39;67855.28;6116031;23;20017;-77
2022/04/28 08:04:48;;;;;;;12.07;5.20;;;;;;;9.87;71.73;67870.59;6091339;23;20076;-77
2022/04/28 08:07:13;;;;;;;13.68;5.50;;;;;;;9.91;70.03;67874.56;6115628;23;20049;-77
2022/04/28 08:09:38;;;;;;;12.50;5.93;;;;;;;9.77;68.39;67858.69;6117652;23;20700;-77
2022/04/28 08:12:05;;;;;;;11.43;5.40;;;;;;;9.74;70.41;67855.84;6115598;23;20018;-77
2022/04/28 08:14:32;;;;;;;12.55;5.85;;;;;;;;;;6116879;23;20017;-77
2022/04/28 08:16:58;;;;;;;14.32;6.25;;;;;;;9.70;68.51;67857.19;6090717;23;20084;-77
2022/04/28 08:19:23;;;;;;;12.98;6.13;;;;;;;;;;6117366;23;20021;-77
2022/04/28 08:21:48;;;;;;;11.75;5.82;;;;;;;;;;6116239;23;20040;-77
2022/04/28 08:24:14;;;;;;;11.02;5.43;;;;;;;9.91;68.83;67879.88;6116330;23;20022;-77
2022/04/28 08:26:40;;;;;;;13.85;6.00;;;;;;;;;;6116451;23;20091;-77
2022/04/28 08:29:05;;;;;;;13.13;6.05;;;;;;;10.02;67.97;67887.03;6090326;23;20026;-77
2022/04/28 08:31:32;;;;;;;14.48;5.78;;;;;;;10.05;66.73;67892.53;6116974;23;20045;-77
2022/04/28 08:33:57;;;;;;;7.82;5.43;;;;;;;10.00;68.06;67886.88;6115883;23;20075;-77
2022/04/28 08:36:22;;;;;;;10.85;5.60;;;;;;;10.13;67.38;67902.19;6091219;23;20493;-77
2022/04/28 08:38:48;;;;;;;9.85;4.93;;;;;;;10.11;67.25;67902.56;6091275;23;20068;-77
2022/04/28 08:41:19;;;;;;;10.32;5.38;;;;;;;10.14;66.68;67900.66;6115922;23;20334;-77
2022/04/28 08:43:45;;;;;;;9.40;5.20;;;;;;;10.09;67.25;67894.41;6116581;23;20018;-77
2022/04/28 08:48:56;;;;;;;12.55;5.50;;;;;;;;;;6088031;23;20379;-77
2022/04/28 08:51:25;;;;;;;9.65;5.47;;;;;;;10.34;67.33;67916.91;6086585;23;20015;-77
2022/04/28 08:53:51;;;;;;;9.70;5.47;;;;;;;10.19;65.03;67905.75;6086227;23;20018;-77
2022/04/28 08:56:18;;;;;;;11.95;4.85;;;;;;;10.37;66.29;67926.19;6073197;23;20019;-77
2022/04/28 08:58:43;;;;;;;11.35;5.40;;;;;;;10.37;66.83;67920.88;6058398;23;20104;-76
2022/04/28 09:01:09;;;;;;;11.00;5.55;;;;;;;;;;6057459;23;20415;-77
2022/04/28 09:03:34;;;;;;;11.05;5.32;;;;;;;;;;6058555;23;20429;-77
2022/04/28 09:06:23;;;;;;;11.07;5.40;;;;;;;10.86;65.48;67974.78;6057819;23;20026;-77
2022/04/28 09:08:49;;;;;;;9.68;5.10;;;;;;;10.97;65.72;67992.59;6059106;23;20271;-77
2022/04/28 09:11:21;;;;;;;9.38;5.00;;;;;;;11.20;64.83;68020.81;6057661;23;20078;-77
2022/04/28 09:14:09;;;;;;;9.68;5.18;;;;;;;;;;6057396;23;20053;-77
2022/04/28 09:16:45;;;;;;;12.93;5.43;;;;;;;11.35;65.74;68034.03;6017300;23;20049;-76
2022/04/28 09:19:14;;;;;;;8.45;5.00;;;;;;;11.51;65.96;68052.78;6059316;23;20019;-77
2022/04/28 09:21:40;;;;;;;11.75;5.22;;;;;;;11.28;63.96;68026.66;6060751;23;20659;-76
2022/04/28 09:24:06;;;;;;;11.38;5.28;;;;;;;11.32;64.39;68033.88;6059219;23;20030;-77
2022/04/28 09:26:34;;;;;;;10.10;5.55;;;;;;;;;;6059992;23;20015;-77
2022/04/28 09:29:03;;;;;;;12.15;5.38;;;;;;;;;;6059997;23;20022;-77
2022/04/28 09:31:29;;;;;;;8.43;4.22;;;;;;;;;;6060125;23;20066;-77
2022/04/28 09:33:54;;;;;;;10.68;5.90;;;;;;;;;;6059737;23;20026;-77
2022/04/28 09:36:20;;;;;;;8.30;5.87;;;;;;;11.34;64.06;68033.47;6034342;23;20348;-77
2022/04/28 09:38:52;;;;;;;14.35;5.20;;;;;;;11.15;63.82;68012.47;6060374;23;20763;-77
2022/04/28 09:44:01;;;;;;;9.23;5.03;;;;;;;;;;6058990;23;20026;-77
2022/04/28 09:46:26;;;;;;;10.35;6.25;;;;;;;11.55;61.81;68056.75;6060114;23;20019;-76
2022/04/28 09:48:52;;;;;;;10.25;5.45;;;;;;;11.49;62.47;68045.16;6059142;23;20022;-77
2022/04/28 09:51:22;;;;;;;10.02;5.25;;;;;;;11.62;62.81;68067.34;6059744;23;20023;-77
2022/04/28 09:53:48;;;;;;;9.77;5.70;;;;;;;;;;6059857;23;20027;-77
2022/04/28 09:56:16;;;;;;;8.63;5.35;;;;;;;11.69;62.12;68072.09;6049483;23;20029;-87
2022/04/28 09:58:42;;;;;;;10.93;6.25;;;;;;;11.67;61.10;68069.81;6101524;23;20124;-88
2022/04/28 10:01:08;;;;;;;10.48;5.55;;;;;;;11.61;62.34;68063.56;6072970;23;20015;-88
2022/04/28 10:03:34;;;;;;;12.75;6.00;;;;;;;11.76;61.16;68080.03;6098303;23;20025;-89
2022/04/28 10:06:02;;;;;;;12.35;5.78;;;;;;;;;;6099220;23;20022;-90
2022/04/28 10:08:29;;;;;;;12.67;5.77;;;;;;;;;;6100151;23;20022;-90
2022/04/28 10:10:56;;;;;;;12.73;5.40;;;;;;;11.82;60.70;68086.84;6061937;23;20309;-88
2022/04/28 10:13:22;;;;;;;7.88;4.50;;;;;;;11.73;59.46;68079.84;6097881;23;20038;-88
2022/04/28 10:15:58;;;;;;;9.85;5.28;;;;;;;11.77;61.13;68080.59;6100909;23;20042;-89
2022/04/28 10:18:44;;;;;;;10.65;5.38;;;;;;;11.84;59.73;68089.13;6048462;23;20093;-88
2022/04/28 10:21:16;;;;;;;8.95;5.90;;;;;;;12.01;60.68;68110.00;5912070;23;20029;-89
2022/04/28 10:32:24;;;;;;;12.82;5.97;;;;;;;;;;5946686;24;20175;-88
2022/04/28 10:35:03;;;;;;;12.20;6.40;;;;;;;12.27;60.30;68139.53;5949024;24;20028;-89
2022/04/28 10:40:40;;;;;;;10.57;6.90;;;;;;;12.60;59.76;68173.22;5876110;24;20098;-90
2022/04/28 10:43:17;;;;;;;11.27;7.07;;;;;;;;;;5882242;24;20025;-89
2022/04/28 10:46:24;;;;;;;;;;;;;;;;;;;;;
2022/04/28 10:49:05;;;;;;;10.35;6.60;;;;;;;13.01;57.86;68218.72;5860639;24;20060;-88
2022/04/28 10:51:37;;;;;;;11.07;6.35;;;;;;;13.36;57.93;68257.97;5862405;24;20036;-87
2022/04/28 10:54:09;;;;;;;12.65;6.10;;;;;;;13.08;56.77;68227.22;5903210;24;20025;-88
2022/04/28 10:56:56;;;;;;;12.15;6.68;;;;;;;13.07;55.07;68225.53;5932847;24;20098;-89
2022/04/28 10:59:29;;;;;;;9.50;6.40;;;;;;;12.99;56.34;68217.00;5950615;24;20021;-89
2022/04/28 11:02:15;;;;;;;9.88;5.82;;;;;;;13.13;57.49;68231.78;5933014;24;20020;-89
2022/04/28 11:04:42;;;;;;;10.70;6.53;;;;;;;13.35;55.01;68256.25;5902505;24;20033;-89
2022/04/28 11:07:16;;;;;;;14.43;6.00;;;;;;;;;;5956938;24;20021;-90
2022/04/28 11:09:45;;;;;;;10.00;6.70;;;;;;;13.62;54.62;68286.97;5958810;24;20126;-89
2022/04/28 11:12:18;;;;;;;10.55;6.65;;;;;;;13.50;53.66;68273.91;5929372;24;20179;-89
2022/04/28 11:14:46;;;;;;;10.10;6.32;;;;;;;13.35;56.08;68250.91;5928065;24;20541;-85
2022/04/28 11:17:13;;;;;;;12.32;6.78;;;;;;;13.54;53.79;68278.44;5951367;24;20026;-87
2022/04/28 11:19:40;;;;;;;12.75;7.93;;;;;;;13.54;53.69;68269.84;5969220;23;20486;-87
2022/04/28 11:22:05;;;;;;;11.38;6.43;;;;;;;13.58;54.34;68281.84;6039324;23;20018;-88
2022/04/28 11:24:31;;;;;;;10.77;6.63;;;;;;;13.80;54.12;68309.00;6065746;23;20021;-87
2022/04/28 11:27:00;;;;;;;10.73;7.40;;;;;;;13.54;54.72;68270.41;6064109;23;20041;-87
2022/04/28 11:32:44;;;;;;;11.15;6.93;;;;;;;13.82;54.71;68303.25;6092914;23;20034;-86
2022/04/28 11:35:09;;;;;;;10.13;7.07;;;;;;;13.83;55.13;68304.38;6084127;23;20454;-87
2022/04/28 11:37:37;;;;;;;10.90;6.50;;;;;;;14.56;56.55;68386.34;6061547;23;20073;-87
2022/04/28 11:40:04;;;;;;;10.10;6.20;;;;;;;14.63;51.16;68399.66;6029875;23;20014;-87
2022/04/28 11:42:31;;;;;;;11.85;5.63;;;;;;;;;;6055956;23;20254;-87
2022/04/28 11:44:59;;;;;;;9.55;5.43;;;;;;;14.98;51.07;68433.00;6032955;23;20897;-87
2022/04/28 11:47:26;;;;;;;10.48;5.97;;;;;;;14.74;47.81;68411.63;6059544;23;20019;-86
2022/04/28 11:49:58;;;;;;;13.45;5.95;;;;;;;15.13;48.92;68454.88;6044865;23;20102;-87
2022/04/28 11:52:33;;;;;;;9.18;5.28;;;;;;;15.04;51.12;68439.84;6031629;23;20042;-88
2022/04/28 11:55:01;;;;;;;10.48;6.38;;;;;;;15.15;49.13;68448.56;6058246;23;20034;-88
2022/04/28 11:57:27;;;;;;;9.23;6.43;;;;;;;15.23;51.43;68460.94;6034003;23;20364;-87
2022/04/28 11:59:53;;;;;;;13.18;7.10;;;;;;;15.38;48.91;68482.22;6059092;23;20051;-87
2022/04/28 12:02:36;;;;;;;9.68;6.45;;;;;;;;;;6062993;23;20018;-87
2022/04/28 12:05:21;;;;;;;10.82;7.13;;;;;;;15.41;48.58;68478.16;6058278;23;20030;-87
2022/04/28 12:07:53;;;;;;;9.05;6.30;;;;;;;;;;6058440;23;20011;-87
2022/04/28 12:16:00;;;;;;;9.60;6.50;;;;;;;15.48;46.18;68488.28;6057305;23;20077;-87
2022/04/28 12:21:21;;;;;;;10.98;6.30;;;;;;;16.08;45.14;68555.50;6058548;23;20026;-83
2022/04/28 12:23:51;;;;;;;10.55;6.28;;;;;;;15.96;46.02;68542.41;6059378;23;20077;-85
2022/04/28 12:26:26;;;;;;;12.55;7.55;;;;;;;15.40;46.68;68479.72;6057877;23;20098;-84
2022/04/28 12:28:52;;;;;;;12.75;7.53;;;;;;;15.41;47.79;68480.84;6032493;23;20025;-83
2022/04/28 12:31:31;;;;;;;10.95;7.25;;;;;;;15.43;48.69;68488.50;6020112;23;20027;-84
2022/04/28 12:33:58;;;;;;;12.00;7.47;;;;;;;15.47;50.08;68495.16;6031298;23;20396;-84
2022/04/28 12:36:24;;;;;;;10.77;7.15;;;;;;;;;;6031061;23;20248;-85